x

Halibut Bank (46146) Wave Buoy

6:00pm - Wed 28th Sep 2016 All times are PDT. -7 hours from GMT.

  • Sig Wave height 1.3ft
  • Peak Period 3s
  • Wind
    13mph, 16mph gusts
  • Sea Temp 55°f
  • Air Temp 57°f
  • Sea Pressure 1017mb
  • Halibut Bank
  • Halibut Bank

More Historic Weather Station data

Upgrade to MSW Pro to gain access to the past 30 days of data for over 8000 Wavebouys and Weather Stations around the globe.

Join Pro

Comparision Forecast

View Surf forecast
   
Wed 09/28 6:00pm 1.3ft 3s 13 16 mph 1017mb 55f 57f
5:00pm 1.3ft 3s 11 13 mph 1017.4mb 56f 57f
4:00pm 1.3ft 3s 13 16 mph 1017.9mb 56f 56f
3:00pm 2ft 4s 13 18 mph 1018.5mb 56f 55f
2:00pm 2ft 4s 18 20 mph 1019mb 56f 55f
11:00am 2ft 4s 13 16 mph 1021mb 55f 53f
10:00am 2ft 4s 16 18 mph 1021.1mb 54f 53f
9:00am 2ft 4s 18 20 mph 1020.9mb 54f 53f
8:00am 2.5ft 4s 18 22 mph 1020.7mb 54f 53f
7:00am 2.5ft 4s 20 22 mph 1020.5mb 55f 53f
6:00am 2.5ft 4s 18 22 mph 1020.6mb 55f 53f
5:00am 2.5ft 4s 18 20 mph 1020.4mb 55f 54f
4:00am 2.5ft 4s 18 20 mph 1020.5mb 55f 54f
3:00am 2.5ft 4s 20 25 mph 1020.9mb 56f 55f
2:00am 2.5ft 4s 20 25 mph 1020.8mb 57f 55f
1:00am 2.5ft 4s 22 27 mph 1020.8mb 57f 56f
12:00am 2.5ft 3s 25 29 mph 1020.9mb 57f 57f
Tue 09/27 11:00pm 2ft 3s 22 27 mph 1021mb 57f 57f
10:00pm 2ft 3s 20 25 mph 1021.3mb 57f 58f
9:00pm 2ft 3s 20 25 mph 1021.4mb 57f 58f
8:00pm 1.6ft 3s 18 22 mph 1021.2mb 57f 59f
7:00pm 1.6ft 4s 18
mph
1021.2mb 57f 58f
6:00pm 2ft 4s 16 18 mph 1021.5mb 57f 58f
5:00pm 2.5ft 4s 18 20 mph 1021.7mb 57f 58f
4:00pm 2.5ft 4s 16 20 mph 1022.2mb 57f 58f
3:00pm 2.5ft 4s 16 18 mph 1022.6mb 57f 58f
2:00pm 2.5ft 4s 16 20 mph 1023.1mb 57f 57f
1:00pm 2.5ft 4s 16 18 mph 1023.4mb 57f 56f
12:00pm 2.5ft 4s 18 20 mph 1023.5mb 57f 56f
11:00am 2.5ft 4s 18 22 mph 1023.7mb 57f 56f
10:00am 3.5ft 4s 22 27 mph 1023mb 57f 55f
9:00am 3ft 4s 22 25 mph 1023mb 57f 55f
8:00am 3.5ft 4s 25 29 mph 1022.3mb 57f 55f
7:00am 3.5ft 4s 25 29 mph 1021.5mb 57f 56f
6:00am 3.5ft 4s 22 27 mph 1021.2mb 57f 56f
5:00am 3.5ft 4s 25 31 mph 1020.5mb 57f 56f
4:00am 3.5ft 5s 27 31 mph 1019.8mb 57f 57f
3:00am 3.5ft 4s 22 29 mph 1019.6mb 57f 57f
2:00am 2.5ft 4s 22 27 mph 1019.1mb 57f 58f
1:00am 1.3ft 3s 22 25 mph 1018.6mb 57f 58f
12:00am 0.3ft 2s 18 22 mph 1018.4mb 58f 58f
Mon 09/26 11:00pm 0.3ft 4s 4 7 mph 1017.9mb 58f 58f
10:00pm 0.3ft 3s 4
mph
1017.4mb 58f 58f
9:00pm 0.3ft 7s 2
mph
1016.8mb 58f 58f
8:00pm 0.3ft 3s 2 4 mph 1016.1mb 58f 58f
7:00pm 0.3ft 6s 7
mph
1016.4mb 58f 58f
6:00pm 0.3ft 6s 4 7 mph 1016.1mb 58f 58f
5:00pm 0.3ft 4s 2 4 mph 1016.5mb 58f 59f
4:00pm 0.3ft 4s 4 7 mph 1016.8mb 58f 58f
3:00pm 0.3ft 3s 4 7 mph 1017.1mb 58f 58f
2:00pm 0.3ft 2s  -  2 mph 1017.7mb 58f 58f
1:00pm 0.3ft 6s 4
mph
1018.5mb 58f 57f
12:00pm 0.3ft 6s  -  2 mph 1018.9mb 58f 58f
11:00am 0.3ft 2s 7 9 mph 1020.1mb 58f 57f
10:00am 0.3ft 6s 7 9 mph 1020.3mb 57f 57f
9:00am 0.3ft 3s 4 7 mph 1020.6mb 57f 56f
8:00am 0.7ft 2s 7
mph
1021mb 57f 56f
7:00am 0.7ft 2s 9 11 mph 1021.5mb 57f 56f
6:00am 0.7ft 3s 11 13 mph 1021.9mb 57f 56f
5:00am 0.7ft 3s 7 9 mph 1022.2mb 57f 55f
4:00am 0.7ft 3s 9 11 mph 1022.6mb 57f 56f
3:00am 1ft 3s 9 11 mph 1023.3mb 57f 56f
2:00am 1.3ft 3s 11 13 mph 1024.1mb 57f 56f
1:00am 1ft 2s 11 13 mph 1025.1mb 57f 57f
12:00am 0.7ft 3s 11 13 mph 1025.6mb 57f 57f
Sun 09/25 11:00pm 0.3ft 3s 4 7 mph 1026mb 57f 58f
10:00pm 0.3ft 3s 7 9 mph 1026.4mb 57f 58f
9:00pm 0.3ft 6s 7 9 mph 1026.8mb 57f 58f
8:00pm 0.3ft 4s 4 7 mph 1027.1mb 57f 58f
7:00pm 0.3ft 4s 7
mph
1027.4mb 57f 57f
6:00pm 0.3ft 6s 4 7 mph 1027.8mb 57f 57f
5:00pm 0.7ft 6s 2 4 mph 1028.4mb 57f 58f
4:00pm 0.7ft 3s 4
mph
1029.3mb 57f 58f
3:00pm 0.7ft 3s 4 7 mph 1029.6mb 57f 58f
2:00pm 0.7ft 3s 4 7 mph 1030.1mb 57f 58f
1:00pm 1ft 3s 7 9 mph 1030.3mb 57f 58f
12:00pm 1ft 3s 9 11 mph 1030.2mb 57f 58f
11:00am 1ft 3s 9 11 mph 1030.5mb 58f 58f
10:00am 1.3ft 3s 11 13 mph 1030.2mb 58f 57f
9:00am 1ft 3s 9 11 mph 1030.2mb 58f 57f
8:00am 1ft 2s 9 11 mph 1029.9mb 57f 57f
7:00am 1ft 2s 9 11 mph 1029.6mb 57f 58f
6:00am 1ft 2s 9 13 mph 1029.2mb 57f 58f
5:00am 1ft 3s 11 13 mph 1028.8mb 57f 58f
4:00am 1ft 3s 4 7 mph 1029mb 57f 57f
3:00am 1ft 3s 7 9 mph 1028.7mb 58f 56f